Time;durP1;ratioP1;P1;durP2;ratioP2;P2;SDS_P1;SDS_P2;PMS_P1;PMS_P2;Temp;Humidity;BMP_temperature;BMP_pressure;BME280_temperature;BME280_humidity;BME280_pressure;Samples;Min_cycle;Max_cycle;Signal;HPM_P1;HPM_P2
2022/10/07 00:00:22;;;;;;;7.27;1.53;;;;;;;8.34;80.92;102115.13;5030855;28;20816;-78
2022/10/07 00:02:49;;;;;;;6.30;2.07;;;;;;;8.35;80.80;102103.59;5038768;28;20586;-78
2022/10/07 00:05:16;;;;;;;4.30;1.50;;;;;;;8.38;81.51;102105.28;5033243;28;20240;-79
2022/10/07 00:07:42;;;;;;;7.63;1.80;;;;;;;8.41;81.08;102105.22;5035297;28;20212;-78
2022/10/07 00:10:09;;;;;;;7.23;2.10;;;;;;;8.43;81.58;102094.50;5031781;28;20210;-79
2022/10/07 00:12:35;;;;;;;8.00;1.70;;;;;;;8.41;81.65;102097.25;5033263;28;20217;-79
2022/10/07 00:15:02;;;;;;;6.10;3.03;;;;;;;8.41;81.27;102093.72;5041995;28;20222;-79
2022/10/07 00:17:30;;;;;;;5.40;1.27;;;;;;;8.41;81.30;102093.72;5035758;28;20561;-80
2022/10/07 00:19:56;;;;;;;5.70;1.80;;;;;;;8.39;81.74;102095.53;5040291;28;20222;-78
2022/10/07 00:22:23;;;;;;;6.93;1.90;;;;;;;8.34;81.17;102085.94;5043069;28;20237;-80
2022/10/07 00:24:49;;;;;;;3.30;1.50;;;;;;;8.29;81.73;102087.81;5033824;28;20226;-78
2022/10/07 00:27:16;;;;;;;6.20;1.60;;;;;;;8.27;81.72;102081.69;5039965;28;20203;-78
2022/10/07 00:29:42;;;;;;;7.20;1.57;;;;;;;8.26;82.20;102081.72;5037727;28;20214;-77
2022/10/07 00:32:09;;;;;;;7.43;1.67;;;;;;;8.24;81.93;102076.47;5033891;28;20214;-78
2022/10/07 00:34:36;;;;;;;3.03;1.57;;;;;;;8.26;82.00;102071.13;5033361;28;20222;-79
2022/10/07 00:37:03;;;;;;;6.00;1.60;;;;;;;8.25;82.52;102064.06;5039054;28;20202;-78
2022/10/07 00:39:30;;;;;;;5.73;1.73;;;;;;;8.25;82.31;102066.72;5042905;28;20202;-78
2022/10/07 00:41:56;;;;;;;5.67;1.70;;;;;;;8.24;82.98;102063.19;5033240;28;20232;-80
2022/10/07 00:44:40;;;;;;;6.13;1.50;;;;;;;8.22;82.16;102046.47;5037119;28;20230;-81
2022/10/07 00:47:12;;;;;;;5.33;1.93;;;;;;;8.17;81.84;102042.22;5036055;28;20782;-78
2022/10/07 00:49:45;;;;;;;5.20;1.60;;;;;;;8.12;81.43;102041.47;5040940;28;20210;-79
2022/10/07 00:52:12;;;;;;;4.23;1.70;;;;;;;8.04;81.30;102043.53;5045424;28;20293;-79
2022/10/07 00:54:40;;;;;;;5.67;2.03;;;;;;;7.96;81.18;102041.09;5045830;28;20233;-79
2022/10/07 00:57:07;;;;;;;5.97;1.90;;;;;;;7.89;81.99;102031.56;5041997;28;20217;-79
2022/10/07 00:59:33;;;;;;;7.20;2.00;;;;;;;7.85;82.01;102033.47;5036106;28;20702;-79
2022/10/07 01:02:00;;;;;;;5.43;1.73;;;;;;;7.83;81.95;102026.47;5048447;28;20220;-79
2022/10/07 01:04:26;;;;;;;7.17;2.20;;;;;;;7.81;82.91;102023.84;5041600;28;20739;-80
2022/10/07 01:06:54;;;;;;;7.10;2.30;;;;;;;7.81;82.68;102028.28;5034474;28;20571;-79
2022/10/07 01:09:21;;;;;;;6.13;1.70;;;;;;;7.82;83.29;102022.94;5034444;28;20206;-78
2022/10/07 01:11:52;;;;;;;7.87;1.83;;;;;;;7.82;82.94;102022.06;5030741;28;20214;-82
2022/10/07 01:14:30;;;;;;;8.00;1.87;;;;;;;7.84;83.52;102020.25;5036525;28;20880;-80
2022/10/07 01:17:04;;;;;;;6.47;1.70;;;;;;;7.84;83.23;102017.59;5044333;28;20212;-79
2022/10/07 01:19:54;;;;;;;6.00;1.83;;;;;;;7.83;83.61;102014.06;5034553;28;20211;-78
2022/10/07 01:22:36;;;;;;;5.23;1.53;;;;;;;7.81;83.73;102007.94;5037076;28;20206;-79
2022/10/07 01:25:16;;;;;;;6.37;1.73;;;;;;;7.80;83.99;102000.03;5043027;28;20333;-79
2022/10/07 01:27:49;;;;;;;5.97;2.00;;;;;;;7.77;83.67;102000.13;5062141;22;20229;-68
2022/10/07 01:30:18;;;;;;;6.30;1.90;;;;;;;7.76;83.58;101999.25;5028298;28;20226;-68
2022/10/07 01:32:52;;;;;;;5.23;2.00;;;;;;;7.74;83.65;102000.22;5030755;28;20245;-68
2022/10/07 01:35:23;;;;;;;2.73;1.47;;;;;;;7.73;83.63;101988.72;5031083;28;20292;-67
2022/10/07 01:37:53;;;;;;;5.93;1.80;;;;;;;7.72;83.62;101991.44;5035835;28;20211;-68
2022/10/07 01:40:24;;;;;;;5.47;1.83;;;;;;;7.68;83.62;101984.50;5026350;28;20230;-68
2022/10/07 01:42:52;;;;;;;8.00;2.13;;;;;;;7.65;83.46;101983.69;5028822;28;20222;-68
2022/10/07 01:45:22;;;;;;;5.60;1.63;;;;;;;7.61;83.39;101984.69;5042349;28;20202;-67
2022/10/07 01:47:49;;;;;;;6.60;1.93;;;;;;;7.60;84.12;101984.72;5032435;28;20197;-67
2022/10/07 01:50:17;;;;;;;6.33;2.33;;;;;;;7.57;84.06;101979.50;5035233;28;20226;-67
2022/10/07 01:52:59;;;;;;;4.67;2.00;;;;;;;7.56;83.48;101983.06;5031138;28;20201;-67
2022/10/07 01:55:40;;;;;;;6.03;2.10;;;;;;;7.54;83.53;101976.94;5035631;28;20229;-68
2022/10/07 01:58:18;;;;;;;4.57;2.00;;;;;;;7.50;83.94;101970.88;5034748;28;20209;-68
2022/10/07 02:00:51;;;;;;;8.50;2.63;;;;;;;7.48;84.44;101969.19;5028141;28;20230;-67
2022/10/07 02:03:32;;;;;;;8.10;2.40;;;;;;;7.46;84.45;101968.38;5039195;28;20233;-68
2022/10/07 02:06:04;;;;;;;4.50;2.23;;;;;;;7.42;83.86;101967.56;5037743;28;20206;-68
2022/10/07 02:08:36;;;;;;;3.53;1.83;;;;;;;7.41;84.10;101967.63;5024993;28;20218;-67
2022/10/07 02:11:13;;;;;;;6.93;2.27;;;;;;;7.37;84.42;101963.31;5036966;28;20226;-67
2022/10/07 02:13:54;;;;;;;9.13;2.80;;;;;;;7.35;84.42;101944.81;5033460;28;20247;-68
2022/10/07 02:16:26;;;;;;;6.50;2.20;;;;;;;7.34;84.53;101942.22;5034464;28;20251;-67
2022/10/07 02:18:54;;;;;;;5.37;2.17;;;;;;;7.31;84.63;101953.78;5036652;28;20213;-68
2022/10/07 02:21:25;;;;;;;5.33;1.87;;;;;;;7.27;84.94;101950.34;5033229;28;20214;-68
2022/10/07 02:23:54;;;;;;;7.23;2.10;;;;;;;7.25;84.79;101940.69;5036465;28;20699;-68
2022/10/07 02:26:22;;;;;;;4.57;2.10;;;;;;;7.20;84.83;101939.94;5034070;28;20222;-68
2022/10/07 02:28:53;;;;;;;4.20;1.97;;;;;;;7.17;85.37;101942.69;5033552;28;20194;-68
2022/10/07 02:31:24;;;;;;;4.67;2.20;;;;;;;7.12;84.87;101932.25;5032247;28;20432;-68
2022/10/07 02:33:55;;;;;;;7.17;2.07;;;;;;;7.07;84.75;101933.28;5035510;28;20212;-68
2022/10/07 02:36:27;;;;;;;7.00;2.37;;;;;;;7.04;85.16;101936.00;5030616;28;20272;-68
2022/10/07 02:38:55;;;;;;;5.90;2.17;;;;;;;7.03;85.24;101936.91;5033098;28;20296;-68
2022/10/07 02:41:31;;;;;;;6.27;2.23;;;;;;;6.99;85.35;101938.78;5031452;28;20218;-68
2022/10/07 02:44:09;;;;;;;6.97;2.17;;;;;;;6.96;85.63;101926.50;5032925;28;20229;-67
2022/10/07 02:46:42;;;;;;;4.93;2.20;;;;;;;6.96;85.87;101929.16;5031540;28;20224;-67
2022/10/07 02:49:12;;;;;;;4.47;2.00;;;;;;;6.95;85.59;101924.78;5031940;28;20229;-68
2022/10/07 02:51:45;;;;;;;9.93;2.50;;;;;;;6.94;86.09;101928.34;5034180;28;20839;-68
2022/10/07 02:54:13;;;;;;;6.00;2.40;;;;;;;6.96;86.10;101923.88;5021834;28;20295;-68
2022/10/07 02:56:41;;;;;;;6.87;2.50;;;;;;;6.97;86.40;101919.44;5033602;28;20205;-68
2022/10/07 02:59:10;;;;;;;7.67;2.40;;;;;;;7.00;86.54;101926.41;5025952;28;20222;-67
2022/10/07 03:01:44;;;;;;;6.07;2.63;;;;;;;7.02;87.28;101922.81;5030276;28;20202;-68
2022/10/07 03:04:10;;;;;;;6.20;2.83;;;;;;;7.08;87.02;101924.41;5027149;28;20206;-67
2022/10/07 03:06:37;;;;;;;7.17;2.47;;;;;;;7.13;86.93;101917.22;5032844;28;20202;-67
2022/10/07 03:09:04;;;;;;;6.10;2.10;;;;;;;7.18;87.78;101909.97;5035295;28;20222;-67
2022/10/07 03:11:30;;;;;;;5.33;2.47;;;;;;;7.25;87.72;101916.84;5038922;28;20292;-68
2022/10/07 03:13:57;;;;;;;6.97;2.43;;;;;;;7.30;87.79;101909.66;5024474;28;20226;-68
2022/10/07 03:16:25;;;;;;;3.60;2.10;;;;;;;7.34;87.63;101903.34;5033823;28;20202;-68
2022/10/07 03:18:52;;;;;;;6.87;2.03;;;;;;;7.38;87.65;101904.97;5031652;28;20201;-68
2022/10/07 03:21:18;;;;;;;23.67;3.53;;;;;;;7.41;87.58;101912.81;5020144;28;20210;-67
2022/10/07 03:23:44;;;;;;;7.23;2.50;;;;;;;7.44;87.65;101906.56;5027106;28;20202;-68
2022/10/07 03:26:11;;;;;;;6.53;2.10;;;;;;;7.47;87.70;101901.19;5035463;28;20220;-67
2022/10/07 03:28:37;;;;;;;16.63;2.80;;;;;;;7.50;88.04;101903.75;5034876;28;20234;-68
2022/10/07 03:31:05;;;;;;;4.40;2.03;;;;;;;7.50;87.89;101896.66;5020035;28;20319;-67
2022/10/07 03:33:34;;;;;;;5.00;1.90;;;;;;;7.53;87.28;101893.88;5026455;28;21201;-68
2022/10/07 03:36:00;;;;;;;6.30;2.63;;;;;;;7.52;88.06;101889.53;5021104;28;20248;-68
2022/10/07 03:38:27;;;;;;;4.67;1.77;;;;;;;7.55;88.09;101888.53;5033859;28;20213;-68
2022/10/07 03:40:53;;;;;;;6.07;2.20;;;;;;;7.56;87.34;101888.50;5028151;28;20229;-68
2022/10/07 03:43:20;;;;;;;3.93;1.90;;;;;;;7.57;87.43;101873.47;5023520;28;20249;-68
2022/10/07 03:45:50;;;;;;;5.63;2.00;;;;;;;7.58;87.31;101875.19;5018616;28;20870;-67
2022/10/07 03:48:16;;;;;;;4.90;2.30;;;;;;;7.57;87.79;101866.38;5018606;28;20294;-68
2022/10/07 03:50:49;;;;;;;5.33;2.37;;;;;;;7.58;87.15;101873.41;5022237;28;20234;-68
2022/10/07 03:53:15;;;;;;;4.90;2.27;;;;;;;7.58;86.81;101876.06;5027308;28;20321;-68
2022/10/07 03:55:42;;;;;;;7.27;2.03;;;;;;;7.58;87.07;101870.75;5023732;28;20210;-68
2022/10/07 03:58:08;;;;;;;6.13;1.93;;;;;;;7.59;87.20;101872.50;5017662;28;20206;-67
2022/10/07 04:00:35;;;;;;;11.93;2.37;;;;;;;7.58;87.44;101869.88;5021080;28;20253;-68
2022/10/07 04:03:01;;;;;;;4.60;1.73;;;;;;;7.59;86.65;101872.50;5020664;28;20252;-68
2022/10/07 04:05:28;;;;;;;6.43;2.13;;;;;;;7.57;86.81;101871.69;5013655;28;20214;-68
2022/10/07 04:07:56;;;;;;;4.47;2.30;;;;;;;7.57;86.87;101869.03;5024931;28;20249;-68
2022/10/07 04:10:23;;;;;;;5.57;2.17;;;;;;;7.58;86.19;101872.53;5016674;28;20221;-68
2022/10/07 04:12:51;;;;;;;6.27;2.27;;;;;;;7.57;87.29;101873.47;5022967;28;20231;-68
2022/10/07 04:15:18;;;;;;;4.93;2.30;;;;;;;7.55;87.04;101862.91;5020913;28;20772;-68
2022/10/07 04:17:46;;;;;;;6.90;2.57;;;;;;;7.56;86.56;101869.06;5018700;28;20209;-68
2022/10/07 04:20:14;;;;;;;10.13;2.13;;;;;;;7.55;87.04;101868.19;5021875;28;20222;-68
2022/10/07 04:22:40;;;;;;;7.80;1.97;;;;;;;7.54;87.20;101861.16;5021923;28;20218;-68
2022/10/07 04:27:57;;;;;;;5.43;2.23;;;;;;;7.52;86.52;101864.81;5021783;28;20356;-67
2022/10/07 04:30:25;;;;;;;6.57;2.20;;;;;;;7.51;86.63;101863.06;5025332;28;20228;-68
2022/10/07 04:32:52;;;;;;;7.13;1.90;;;;;;;7.50;86.29;101862.19;5019511;28;20206;-68
2022/10/07 04:35:20;;;;;;;5.87;2.20;;;;;;;7.49;86.46;101855.16;5023478;28;20321;-67
2022/10/07 04:37:48;;;;;;;5.57;2.03;;;;;;;7.49;86.26;101856.94;5028471;28;20217;-68
2022/10/07 04:40:17;;;;;;;5.13;1.90;;;;;;;7.46;85.97;101857.03;5022399;28;20227;-67
2022/10/07 04:45:28;;;;;;;3.80;1.97;;;;;;;7.43;86.03;101846.53;5027851;28;20224;-67
2022/10/07 04:47:54;;;;;;;9.97;2.67;;;;;;;7.41;86.59;101854.50;5019542;28;20210;-68
2022/10/07 04:50:21;;;;;;;4.33;2.07;;;;;;;7.39;85.93;101851.03;5020532;28;20226;-67
2022/10/07 04:52:47;;;;;;;7.90;2.73;;;;;;;7.38;86.37;101849.31;5022497;28;20214;-68
2022/10/07 04:55:14;;;;;;;7.37;3.23;;;;;;;7.37;86.42;101846.69;5019749;28;20246;-68
2022/10/07 04:57:41;;;;;;;8.70;3.47;;;;;;;7.34;86.77;101845.03;5026942;28;20628;-67
2022/10/07 05:00:09;;;;;;;6.20;3.17;;;;;;;7.33;86.26;101845.94;5026528;28;20644;-68
2022/10/07 05:02:36;;;;;;;7.30;2.60;;;;;;;7.33;86.40;101840.66;5019508;28;20217;-67
2022/10/07 05:05:03;;;;;;;4.63;2.60;;;;;;;7.32;86.22;101849.50;5028005;28;20198;-67
2022/10/07 05:07:31;;;;;;;9.63;2.40;;;;;;;7.30;86.56;101836.31;5027924;28;21190;-67
2022/10/07 05:09:57;;;;;;;7.70;3.67;;;;;;;7.30;86.76;101827.50;5019467;28;20353;-67
2022/10/07 05:12:25;;;;;;;6.83;2.33;;;;;;;7.29;86.89;101839.00;5032420;28;20257;-66
2022/10/07 05:14:53;;;;;;;6.37;2.63;;;;;;;7.28;86.60;101837.28;5025640;28;20227;-68
2022/10/07 05:17:20;;;;;;;6.57;2.17;;;;;;;7.28;86.55;101837.28;5034625;28;20205;-67
2022/10/07 05:19:46;;;;;;;4.83;2.50;;;;;;;7.26;86.45;101829.38;5031045;28;20245;-68
2022/10/07 05:22:13;;;;;;;8.73;2.90;;;;;;;7.27;86.73;101835.53;5035678;28;20619;-67
2022/10/07 05:24:39;;;;;;;8.07;3.03;;;;;;;7.27;86.55;101838.19;5035197;28;20237;-67
2022/10/07 05:27:06;;;;;;;6.60;2.57;;;;;;;7.26;86.78;101823.19;5038030;28;20212;-67
2022/10/07 05:29:32;;;;;;;5.23;2.27;;;;;;;7.26;86.76;101823.19;5026394;28;20237;-67
2022/10/07 05:32:00;;;;;;;4.33;2.57;;;;;;;7.26;86.93;101823.19;5032410;28;20216;-68
2022/10/07 05:34:27;;;;;;;8.50;2.60;;;;;;;7.26;86.07;101832.00;5016279;28;20233;-68
2022/10/07 05:36:53;;;;;;;4.70;1.80;;;;;;;7.28;86.83;101818.72;5009468;28;20210;-68
2022/10/07 05:39:19;;;;;;;6.63;2.30;;;;;;;7.28;87.31;101822.25;5021338;28;20296;-68
2022/10/07 05:41:46;;;;;;;6.00;2.17;;;;;;;7.30;87.35;101819.53;5019060;28;20672;-67
2022/10/07 05:44:12;;;;;;;6.70;2.47;;;;;;;7.32;86.70;101809.75;5021621;28;20209;-68
2022/10/07 05:46:39;;;;;;;12.33;2.67;;;;;;;7.34;87.37;101812.38;5021317;28;20213;-68
2022/10/07 05:49:06;;;;;;;7.03;2.17;;;;;;;7.34;86.42;101810.59;5024094;28;20222;-68
2022/10/07 05:51:33;;;;;;;7.47;2.73;;;;;;;7.35;86.68;101812.28;5024366;28;20213;-68
2022/10/07 05:53:59;;;;;;;7.03;2.03;;;;;;;7.37;87.08;101810.47;5032707;28;20229;-68
2022/10/07 05:56:26;;;;;;;5.13;2.40;;;;;;;7.36;86.63;101814.03;5035911;28;20668;-68
2022/10/07 05:58:53;;;;;;;5.23;2.20;;;;;;;7.36;86.21;101810.50;5027046;28;20210;-68
2022/10/07 06:01:21;;;;;;;9.13;2.23;;;;;;;7.34;85.90;101810.59;5032825;28;20210;-68
2022/10/07 06:03:49;;;;;;;6.10;2.10;;;;;;;7.35;85.58;101808.78;5026523;28;20616;-68
2022/10/07 06:06:17;;;;;;;7.50;2.50;;;;;;;7.33;86.06;101814.16;5028813;28;20210;-68
2022/10/07 06:08:45;;;;;;;7.47;2.37;;;;;;;7.31;85.97;101813.34;5029988;28;20221;-68
2022/10/07 06:13:58;;;;;;;6.50;2.00;;;;;;;7.32;85.25;101804.47;5030904;28;20353;-68
2022/10/07 06:16:25;;;;;;;5.50;2.10;;;;;;;7.32;85.05;101793.88;5032699;28;20205;-67
2022/10/07 06:18:53;;;;;;;5.83;2.27;;;;;;;7.33;85.60;101803.56;5030724;28;20217;-68
2022/10/07 06:21:25;;;;;;;4.13;1.70;;;;;;;7.34;85.75;101800.00;5029662;28;20202;-68
2022/10/07 06:23:52;;;;;;;8.13;2.43;;;;;;;7.36;85.78;101799.91;5029398;28;20268;-68
2022/10/07 06:26:20;;;;;;;3.77;1.80;;;;;;;7.36;85.47;101798.13;5015097;28;20840;-68
2022/10/07 06:28:47;;;;;;;4.50;1.90;;;;;;;7.39;85.74;101803.34;5032701;28;20225;-67
2022/10/07 06:31:16;;;;;;;7.73;2.33;;;;;;;7.42;86.35;101802.38;5025460;28;20792;-68
2022/10/07 06:33:42;;;;;;;13.90;2.73;;;;;;;7.43;86.41;101797.03;5031878;28;20667;-68
2022/10/07 06:36:11;;;;;;;4.60;1.87;;;;;;;7.46;87.06;101799.59;5025199;28;20209;-69
2022/10/07 06:38:44;;;;;;;4.20;2.10;;;;;;;7.49;87.18;101802.16;5031030;28;20201;-68
2022/10/07 06:41:10;;;;;;;6.83;2.30;;;;;;;7.53;87.22;101795.81;5030662;28;20307;-69
2022/10/07 06:43:37;;;;;;;6.47;2.30;;;;;;;7.56;87.70;101795.72;5033816;28;20216;-69
2022/10/07 06:46:05;;;;;;;6.63;2.30;;;;;;;7.60;87.80;101794.69;5027716;28;20209;-68
2022/10/07 06:48:33;;;;;;;7.33;1.93;;;;;;;7.66;88.36;101798.94;5032704;28;20293;-68
2022/10/07 06:51:02;;;;;;;4.43;2.07;;;;;;;7.72;88.49;101793.41;5031678;28;20237;-68
2022/10/07 06:53:29;;;;;;;6.33;2.47;;;;;;;7.79;89.22;101788.78;5036911;28;20205;-68
2022/10/07 06:56:01;;;;;;;4.00;1.80;;;;;;;7.86;89.26;101795.63;5031199;28;20226;-68
2022/10/07 06:58:28;;;;;;;6.10;1.90;;;;;;;7.92;89.87;101792.75;5057072;22;20229;-72
2022/10/07 07:00:55;;;;;;;6.47;2.03;;;;;;;7.97;90.30;101802.28;4979598;28;20212;-72
2022/10/07 07:03:23;;;;;;;6.83;1.60;;;;;;;8.05;89.86;101787.91;4979773;28;20212;-72
2022/10/07 07:05:51;;;;;;;8.30;2.80;;;;;;;8.11;90.07;101791.19;4982116;28;20209;-72
2022/10/07 07:08:18;;;;;;;6.53;2.20;;;;;;;8.19;89.89;101791.81;4985527;28;20235;-72
2022/10/07 07:10:45;;;;;;;6.10;2.10;;;;;;;8.27;89.91;101789.72;4988388;28;20595;-72
2022/10/07 07:13:14;;;;;;;7.17;1.83;;;;;;;8.35;89.83;101793.03;4983970;28;20669;-73
2022/10/07 07:15:41;;;;;;;5.47;1.70;;;;;;;8.44;88.92;101791.81;4988843;28;20223;-73
2022/10/07 07:18:09;;;;;;;5.10;1.83;;;;;;;8.55;89.46;101789.66;4985246;28;20210;-74
2022/10/07 07:20:37;;;;;;;7.53;2.20;;;;;;;8.65;89.07;101801.66;4991613;28;20625;-72
2022/10/07 07:23:04;;;;;;;6.53;1.80;;;;;;;8.75;88.93;101793.34;4984035;28;20208;-72
2022/10/07 07:25:31;;;;;;;6.70;2.13;;;;;;;8.87;87.76;101795.53;4988831;28;20207;-74
2022/10/07 07:28:00;;;;;;;4.20;2.00;;;;;;;8.97;87.94;101795.13;4983101;28;20653;-72
2022/10/07 07:30:28;;;;;;;5.53;2.20;;;;;;;9.08;87.87;101793.84;4987180;28;20289;-72
2022/10/07 07:32:55;;;;;;;7.63;2.30;;;;;;;9.19;87.03;101787.19;4986617;28;20720;-72
2022/10/07 07:35:22;;;;;;;4.83;1.50;;;;;;;9.32;87.13;101783.09;4987708;28;20228;-74
2022/10/07 07:37:49;;;;;;;6.13;1.60;;;;;;;9.47;86.60;101788.75;4985909;28;20211;-73
2022/10/07 07:40:15;;;;;;;4.33;1.50;;;;;;;9.62;86.78;101786.31;4977246;28;20259;-73
2022/10/07 07:42:42;;;;;;;10.17;3.80;;;;;;;9.74;86.02;101780.47;4981580;28;20207;-72
2022/10/07 07:45:09;;;;;;;3.47;2.87;;;;;;;9.91;85.62;101782.44;4985658;28;20211;-72
2022/10/07 07:47:37;;;;;;;7.03;2.23;;;;;;;10.06;84.98;101780.91;4986835;28;20211;-73
2022/10/07 07:50:05;;;;;;;6.83;1.90;;;;;;;10.20;84.48;101789.22;4982897;28;20717;-71
2022/10/07 07:52:32;;;;;;;5.13;2.00;;;;;;;10.35;83.83;101782.34;4984265;28;20259;-72
2022/10/07 07:54:59;;;;;;;5.00;1.70;;;;;;;10.50;82.99;101786.09;4983529;28;20224;-73
2022/10/07 07:57:26;;;;;;;3.97;1.60;;;;;;;10.63;82.01;101776.63;4982513;28;20754;-73
2022/10/07 07:59:53;;;;;;;7.83;2.13;;;;;;;10.75;81.28;101778.72;4983708;28;20232;-72
2022/10/07 08:02:20;;;;;;;6.93;1.70;;;;;;;10.89;80.42;101776.28;4988740;28;20223;-73
2022/10/07 08:04:48;;;;;;;4.60;1.57;;;;;;;11.02;79.63;101769.44;4984534;28;20820;-71
2022/10/07 08:07:14;;;;;;;6.73;1.77;;;;;;;11.19;78.73;101765.09;4984339;28;20203;-73
2022/10/07 08:09:41;;;;;;;3.17;1.30;;;;;;;11.33;78.08;101762.63;4980306;28;20715;-72
2022/10/07 08:12:08;;;;;;;4.63;1.30;;;;;;;11.45;77.23;101757.56;4986750;28;20202;-73
2022/10/07 08:14:35;;;;;;;4.67;1.50;;;;;;;11.60;76.61;101757.75;4992798;28;20254;-72
2022/10/07 08:17:02;;;;;;;5.73;1.70;;;;;;;11.75;76.08;101752.50;4987850;28;20212;-72
2022/10/07 08:19:29;;;;;;;5.27;1.50;;;;;;;11.90;75.30;101755.34;4981592;28;20241;-73
2022/10/07 08:21:57;;;;;;;3.70;1.30;;;;;;;12.02;74.43;101746.72;4982914;28;20201;-73
2022/10/07 08:24:24;;;;;;;7.40;1.60;;;;;;;12.14;73.90;101738.06;4990271;28;20210;-75
2022/10/07 08:26:52;;;;;;;5.23;1.53;;;;;;;12.27;72.97;101743.63;4991160;28;20626;-73
2022/10/07 08:29:19;;;;;;;5.20;1.40;;;;;;;12.41;72.61;101733.94;4987005;28;20756;-72
2022/10/07 08:31:46;;;;;;;7.10;1.87;;;;;;;12.54;71.87;101731.44;4987847;28;20295;-73
2022/10/07 08:34:13;;;;;;;5.37;1.63;;;;;;;12.66;71.41;101745.97;4986703;28;20200;-73
2022/10/07 08:36:42;;;;;;;5.93;1.27;;;;;;;12.78;71.24;101730.09;4993901;28;20231;-74
2022/10/07 08:39:10;;;;;;;7.73;1.80;;;;;;;12.92;70.24;101728.47;4985947;28;20247;-72
2022/10/07 08:41:48;;;;;;;2.43;1.00;;;;;;;13.03;69.60;101732.28;4981924;28;20211;-73
2022/10/07 08:44:21;;;;;;;4.30;1.20;;;;;;;13.13;69.09;101722.78;4988342;28;20618;-73
2022/10/07 08:46:56;;;;;;;7.17;1.33;;;;;;;13.25;68.76;101713.25;4982814;28;20204;-72
2022/10/07 08:49:30;;;;;;;7.17;1.57;;;;;;;13.39;68.29;101717.78;4978753;28;20682;-73
2022/10/07 08:52:01;;;;;;;3.70;1.60;;;;;;;13.49;67.63;101718.97;4986706;28;20223;-73
2022/10/07 08:54:32;;;;;;;4.47;1.53;;;;;;;13.61;67.37;101706.69;4985648;28;20214;-73
2022/10/07 08:57:07;;;;;;;5.63;1.27;;;;;;;13.71;66.62;101714.06;4981542;28;20208;-73
2022/10/07 08:59:35;;;;;;;6.17;1.40;;;;;;;13.83;65.91;101718.69;4982726;28;20242;-74
2022/10/07 09:02:17;;;;;;;4.37;1.60;;;;;;;13.90;65.74;101722.72;4983382;28;20208;-75
2022/10/07 09:04:53;;;;;;;3.93;1.33;;;;;;;13.97;64.83;101717.03;4986034;28;20227;-76
2022/10/07 09:07:30;;;;;;;4.43;1.20;;;;;;;14.07;64.74;101715.50;4981859;28;20243;-75
2022/10/07 09:10:02;;;;;;;3.63;1.13;;;;;;;14.17;64.19;101711.28;4984175;28;20231;-73
2022/10/07 09:12:36;;;;;;;4.60;1.90;;;;;;;14.25;64.10;101712.53;4986173;28;20243;-73
2022/10/07 09:15:05;;;;;;;3.77;1.50;;;;;;;14.38;63.99;101717.13;4990744;28;20709;-74
2022/10/07 09:17:37;;;;;;;3.70;1.80;;;;;;;14.50;63.93;101711.06;4982850;28;20204;-72
2022/10/07 09:20:08;;;;;;;5.53;1.50;;;;;;;14.62;63.09;101704.06;4990202;28;20603;-72
2022/10/07 09:22:38;;;;;;;3.47;1.27;;;;;;;14.74;62.68;101700.56;4983645;28;20212;-73
2022/10/07 09:25:18;;;;;;;5.13;1.30;;;;;;;14.84;62.49;101694.53;4987026;28;20207;-72
2022/10/07 09:27:45;;;;;;;4.33;1.10;;;;;;;14.92;61.81;101689.53;4987630;28;20575;-72
2022/10/07 09:30:13;;;;;;;6.07;1.47;;;;;;;15.02;61.37;101678.22;4987187;28;20229;-73
2022/10/07 09:32:43;;;;;;;4.00;1.50;;;;;;;15.12;61.08;101679.31;4981256;28;20681;-72
2022/10/07 09:35:12;;;;;;;5.10;1.10;;;;;;;15.24;61.07;101668.63;4987202;28;20218;-73
2022/10/07 09:37:55;;;;;;;6.30;1.23;;;;;;;15.36;60.36;101666.97;4983140;28;20690;-73
2022/10/07 09:40:32;;;;;;;3.17;1.00;;;;;;;15.44;59.33;101666.41;4984822;28;20233;-73
2022/10/07 09:42:59;;;;;;;5.27;1.20;;;;;;;15.53;59.16;101669.38;4983697;28;20212;-73
2022/10/07 09:45:27;;;;;;;4.30;1.50;;;;;;;15.61;58.32;101661.66;4982776;28;20213;-75
2022/10/07 09:47:57;;;;;;;8.23;1.43;;;;;;;15.72;57.58;101655.56;4981770;28;20731;-74
2022/10/07 09:50:35;;;;;;;2.97;1.13;;;;;;;15.82;57.59;101656.63;4985938;28;20230;-73
2022/10/07 09:53:03;;;;;;;4.70;1.17;;;;;;;15.93;57.08;101655.91;4984798;28;20207;-73
2022/10/07 09:55:36;;;;;;;6.13;1.20;;;;;;;16.02;56.15;101652.56;4978173;28;20231;-73
2022/10/07 09:58:05;;;;;;;7.27;1.60;;;;;;;16.10;55.89;101644.84;4985526;28;20209;-73
2022/10/07 10:00:32;;;;;;;7.40;1.20;;;;;;;16.18;55.46;101639.75;4982020;28;20254;-74
2022/10/07 10:03:04;;;;;;;8.27;1.00;;;;;;;16.30;54.85;101638.06;4981922;28;20210;-73
2022/10/07 10:05:33;;;;;;;6.37;1.50;;;;;;;16.35;54.67;101632.31;4982932;28;20214;-73
2022/10/07 10:08:04;;;;;;;7.10;1.30;;;;;;;16.43;54.85;101633.50;4987236;28;20205;-74
2022/10/07 10:10:33;;;;;;;4.43;1.40;;;;;;;16.47;54.04;101632.31;4987287;28;20231;-73
2022/10/07 10:13:02;;;;;;;8.17;1.60;;;;;;;16.57;54.36;101635.19;4979403;28;20693;-74
2022/10/07 10:15:41;;;;;;;5.87;0.97;;;;;;;16.68;53.45;101621.81;4981760;28;20732;-73
2022/10/07 10:18:27;;;;;;;4.00;0.97;;;;;;;16.71;52.93;101620.75;4975608;28;20210;-73
2022/10/07 10:20:54;;;;;;;6.90;1.50;;;;;;;16.69;52.87;101602.03;4981433;28;20205;-73
2022/10/07 10:23:30;;;;;;;4.67;1.23;;;;;;;16.69;53.10;101617.31;4981923;28;20307;-74
2022/10/07 10:26:26;;;;;;;5.43;1.50;;;;;;;16.67;53.30;101609.34;4975205;28;20219;-74
2022/10/07 10:29:02;;;;;;;7.67;1.13;;;;;;;16.67;53.35;101615.59;4980967;28;20234;-75
2022/10/07 10:31:48;;;;;;;5.23;1.17;;;;;;;16.73;53.40;101610.72;4983777;28;20226;-72
2022/10/07 10:34:29;;;;;;;3.67;1.17;;;;;;;16.77;53.39;101598.78;4984447;28;20695;-74
2022/10/07 10:37:07;;;;;;;4.63;1.23;;;;;;;16.84;53.58;101598.19;4979028;28;20254;-74
2022/10/07 10:39:46;;;;;;;5.83;1.30;;;;;;;16.93;53.61;101596.66;4982457;28;20231;-74
2022/10/07 10:42:21;;;;;;;4.47;1.60;;;;;;;17.01;53.46;101594.28;4985743;28;20209;-74
2022/10/07 10:45:02;;;;;;;7.30;1.60;;;;;;;17.08;52.52;101591.94;4985711;28;20205;-74
2022/10/07 10:47:39;;;;;;;5.47;1.30;;;;;;;17.10;52.49;101585.50;4982831;28;20243;-74
2022/10/07 10:50:15;;;;;;;8.60;1.37;;;;;;;17.13;52.62;101584.41;4981620;28;20222;-74
2022/10/07 10:52:53;;;;;;;6.27;1.50;;;;;;;17.19;52.69;101579.41;4987910;28;20218;-74
2022/10/07 10:55:38;;;;;;;4.30;1.10;;;;;;;17.21;51.88;101569.38;4984136;28;20651;-74
2022/10/07 10:58:18;;;;;;;5.30;1.10;;;;;;;17.20;51.46;101564.09;4984418;28;20206;-74
2022/10/07 11:00:56;;;;;;;6.00;1.40;;;;;;;17.21;51.70;101563.13;4985901;28;20691;-74
2022/10/07 11:03:46;;;;;;;4.00;1.23;;;;;;;17.20;51.16;101556.88;4981100;28;20220;-74
2022/10/07 11:06:16;;;;;;;5.30;1.37;;;;;;;17.20;51.48;101540.72;4979806;28;20201;-74
2022/10/07 11:08:46;;;;;;;3.60;0.90;;;;;;;17.20;51.48;101535.34;4986252;28;20478;-74
2022/10/07 11:11:17;;;;;;;6.63;1.50;;;;;;;17.21;51.08;101538.88;4984724;28;20208;-74
2022/10/07 11:13:50;;;;;;;7.43;1.53;;;;;;;17.23;50.69;101529.72;4986117;28;20399;-74
2022/10/07 11:16:23;;;;;;;3.90;1.00;;;;;;;17.26;50.21;101520.56;4986060;28;20694;-74
2022/10/07 11:18:55;;;;;;;5.90;1.20;;;;;;;17.27;50.49;101520.44;4974568;28;20231;-74
2022/10/07 11:21:26;;;;;;;6.82;1.42;;;;;;;17.44;49.74;101516.44;4974599;28;20455;-73
2022/10/07 11:24:01;;;;;;;4.67;1.30;;;;;;;17.44;49.19;101521.81;4981320;28;20610;-74
2022/10/07 11:26:33;;;;;;;5.57;1.20;;;;;;;17.43;49.29;101512.03;4982577;28;20288;-73
2022/10/07 11:29:09;;;;;;;4.30;1.43;;;;;;;17.44;49.33;101502.97;4983178;28;20230;-73
2022/10/07 11:31:39;;;;;;;4.97;1.30;;;;;;;17.45;49.37;101499.28;4985517;28;20214;-73
2022/10/07 11:34:15;;;;;;;4.77;1.13;;;;;;;17.44;49.25;101502.09;4979255;28;20209;-71
2022/10/07 11:36:48;;;;;;;6.47;1.50;;;;;;;17.44;49.58;101494.88;4982963;28;20734;-72
2022/10/07 11:39:15;;;;;;;4.97;1.40;;;;;;;17.45;49.33;101484.97;4983318;28;20236;-72
2022/10/07 11:41:50;;;;;;;4.67;1.37;;;;;;;17.45;49.21;101483.13;4983230;28;20707;-71
2022/10/07 11:44:25;;;;;;;4.67;1.10;;;;;;;17.46;49.44;101475.91;4980672;28;20201;-72
2022/10/07 11:46:53;;;;;;;5.13;1.20;;;;;;;17.50;49.51;101469.31;4984942;28;20691;-72
2022/10/07 11:49:25;;;;;;;4.77;1.20;;;;;;;17.50;48.85;101472.00;4984782;28;21487;-72